Airfield :
LOGIN :

Register | Disclaimer

   EN    FR    IT 

 










Legend :    VFR   Marginal VFR   IFR   Intensive IFR   Very Intensive IFR
Visi :
Ceiling :
>= 8 km
>= 3000ft
5 to 8 km
1000 to 3000 ft
1500m to 5 km
500 to 1000 ft
800 to 1500m
200 to 500 ft
< 800m
< 200 ft
Symbols :   Thunderstorms  Fog  Heavy snow  Heavy precipitations  Wind > 20 kt
SIGMETs :     Misc.  Thunderstorms  Icing  Turbulence  Mountain Waves  Volcanic Ashes







- Airport Elevation : 336 ft
- IATA code : GCI
- Download approach charts


EGJB - Guernsey

CURRENT METAR :
  • 142020Z 29025G37KT 9999 VCSH FEW018CB SCT023 08/04 Q0991

EXPIRED METARs :
  • 141950Z 28027G41KT 9999 VCSH FEW018CB SCT030 07/04 Q0991
  • 141920Z 26025G35KT 9999 VCSH FEW018CB BKN028 08/04 Q0992
  • 141850Z 26021G34KT 9999 -SHRA FEW018CB BKN028 08/03 Q0992
  • 141820Z 27021G33KT 9999 SCT030 08/02 Q0992
  • 141750Z 28021G31KT 9999 VCSH SCT028 08/02 Q0993

TAF TAF EGJB
Valid from the 14 at 18:00 until the 15 at 03:00 UTC


141658Z 1418/1503 29022G35KT 9999 SCT018CB
TEMPO 1418/1503 29030G45KT 5000 SHRAGS BKN018CB
PROB30
TEMPO 1418/1503 29035G50KT 3000 TSRAGS BKN012CB
ATIS : +44 1481 238 957
No reported NOTAMs for that airfield.
3 SIGMETs reported for the Brest FIR (LFRR) :
 
Severe turbulence
LFRR SIGMET 17 VALID 142000/142300 LFPW
LFRR BREST FIR/UIR SEV TURB FCST WI N4630 W00100 - N4630 W00130 - N4330 W00145 - N4500 W00800 - N4900 W00800 - N5000 W00200 - N5000 W00115 - N4830 W00115 - N4815 W00345 - N4630 W00100 SFC/FL050 STNR WKN=
Severe turbulence
LFRR SIGMET 16 VALID 142000/142300 LFPW
LFRR BREST FIR/UIR SEV TURB FCST WI N4600 W00800 - N4800 W00800 - N4730 W00015 - N4630 W00015 - N4630 W00130 - N4530 W00145 - N4600 W00800 FL180/280 NC=
Severe turbulence
LFRR SIGMET 14 VALID 141700/142000 LFPW
LFRR BREST FIR/UIR SEV TURB FCST WI N4630 W00045 - N4630 W00130 - N4330 W00145 - N4500 W00800 - N4900 W00800 - N5000 W00200 - N5000 W00115 - N4830 W00130 - N4830 W00400 - N4645 W00045 - N4630 W00045 SFC/FL050 STNR NC=



MET'MAP, your aeronautical weather chart ! - Copyright ORBIFLY December 2007 - Disclaimer

ORBIFLY MET'MAP TEAM :

Programming & Development : Alexandra Zaïnal
Concept & Development : Baudouin d'Aumeries
Co-Development & Prog : Marc-Olivier Méhu
Technical & hardware support : Manuel Goepfert

Contact : metmap@orbifly.com




SOURCES & CREDITS :

   NOAA